createdAt,value
2022-10-05T00:01:28.064Z,100783.53
2022-10-05T00:05:45.985Z,100782.22
2022-10-05T00:10:10.627Z,100781.41
2022-10-05T00:14:35.764Z,100787.84
2022-10-05T00:18:53.807Z,100797.97
2022-10-05T00:23:15.581Z,100783.97
2022-10-05T00:27:39.085Z,100782.28
2022-10-05T00:31:55.045Z,100782.22
2022-10-05T00:36:11.122Z,100788.03
2022-10-05T00:41:09.688Z,100781.16
2022-10-05T00:45:33.046Z,100790.97
2022-10-05T00:50:04.217Z,100786.25
2022-10-05T00:54:49.615Z,100793.37
2022-10-05T00:59:42.962Z,100802.00
2022-10-05T01:04:10.759Z,100800.59
2022-10-05T01:09:05.220Z,100804.59
2022-10-05T01:13:50.438Z,100809.16
2022-10-05T01:18:12.480Z,100812.00
2022-10-05T01:22:52.426Z,100818.38
2022-10-05T01:27:37.186Z,100808.41
2022-10-05T01:32:21.000Z,100801.84
2022-10-05T01:36:55.109Z,100788.38
2022-10-05T01:41:26.012Z,100797.00
2022-10-05T01:45:51.679Z,100810.78
2022-10-05T01:50:32.210Z,100814.19
2022-10-05T01:55:13.828Z,100822.91
2022-10-05T01:59:53.454Z,100818.97
2022-10-05T02:04:42.615Z,100823.59
2022-10-05T02:09:09.188Z,100825.12
2022-10-05T02:13:41.440Z,100835.06
2022-10-05T02:18:09.785Z,100827.34
2022-10-05T02:22:45.968Z,100837.69
2022-10-05T02:27:02.686Z,100831.22
2022-10-05T02:31:23.289Z,100847.84
2022-10-05T02:35:39.570Z,100844.00
2022-10-05T02:40:43.155Z,100847.50
2022-10-05T02:45:54.035Z,100848.16
2022-10-05T02:50:27.320Z,100855.00
2022-10-05T02:55:10.688Z,100831.06
2022-10-05T02:59:43.808Z,100825.22
2022-10-05T03:04:21.726Z,100821.00
2022-10-05T03:09:01.890Z,100815.44
2022-10-05T03:13:40.589Z,100818.03
2022-10-05T03:17:59.824Z,100819.72
2022-10-05T03:22:54.207Z,100816.25
2022-10-05T03:27:19.017Z,100826.53
2022-10-05T03:31:55.517Z,100826.22
2022-10-05T03:36:44.210Z,100838.19
2022-10-05T03:41:22.806Z,100837.09
2022-10-05T03:45:48.902Z,100837.56
2022-10-05T03:50:42.508Z,100839.94
2022-10-05T03:55:23.868Z,100834.25
2022-10-05T03:59:56.747Z,100844.31
2022-10-05T04:04:18.167Z,100841.03
2022-10-05T04:08:40.602Z,100837.78
2022-10-05T04:13:24.685Z,100831.31
2022-10-05T04:17:46.947Z,100830.25
2022-10-05T04:22:22.887Z,100813.22
2022-10-05T04:26:45.850Z,100825.38
2022-10-05T04:31:05.656Z,100811.53
2022-10-05T04:35:30.628Z,100794.88
2022-10-05T04:40:01.285Z,100788.97
2022-10-05T04:44:32.279Z,100794.19
2022-10-05T04:49:09.370Z,100800.22
2022-10-05T04:53:53.492Z,100801.72
2022-10-05T04:58:42.416Z,100801.16
2022-10-05T05:03:25.773Z,100797.72
2022-10-05T05:07:51.533Z,100798.06
2022-10-05T05:12:35.018Z,100817.69
2022-10-05T05:17:03.522Z,100812.84
2022-10-05T05:21:42.738Z,100827.03
2022-10-05T05:26:07.966Z,100839.59
2022-10-05T05:30:26.812Z,100847.13
2022-10-05T05:35:27.140Z,100849.81
2022-10-05T05:39:53.718Z,100849.00
2022-10-05T05:44:18.679Z,100861.25
2022-10-05T05:48:46.740Z,100881.69
2022-10-05T05:53:20.908Z,100888.09
2022-10-05T05:57:46.908Z,100902.88
2022-10-05T06:02:16.354Z,100899.00
2022-10-05T06:06:36.216Z,100912.06
2022-10-05T06:10:57.971Z,100896.44
2022-10-05T06:15:28.491Z,100910.00
2022-10-05T06:19:46.221Z,100925.84
2022-10-05T06:24:17.317Z,100928.19
2022-10-05T06:28:33.375Z,100925.13
2022-10-05T06:33:04.491Z,100933.41
2022-10-05T06:37:53.110Z,100940.22
2022-10-05T06:42:09.063Z,100933.94
2022-10-05T06:46:40.155Z,100946.94
2022-10-05T06:51:09.326Z,100939.25
2022-10-05T06:55:49.341Z,100923.56
2022-10-05T07:00:20.754Z,100931.78
2022-10-05T07:05:01.571Z,100951.25
2022-10-05T07:09:44.865Z,100939.88
2022-10-05T07:14:30.366Z,100948.47
2022-10-05T07:19:21.748Z,100945.72
2022-10-05T07:23:59.523Z,100936.78
2022-10-05T07:28:31.735Z,100926.28
2022-10-05T07:33:23.351Z,100933.97
2022-10-05T07:37:55.319Z,100941.59
2022-10-05T07:42:32.968Z,100940.44
2022-10-05T07:47:13.346Z,100940.19
2022-10-05T07:51:45.464Z,100935.88
2022-10-05T07:56:06.719Z,100931.47
2022-10-05T08:00:24.570Z,100930.41
2022-10-05T08:05:01.081Z,100913.84
2022-10-05T08:09:39.405Z,100909.62
2022-10-05T08:14:18.072Z,100911.81
2022-10-05T08:19:28.412Z,100922.69
2022-10-05T08:23:50.955Z,100912.53
2022-10-05T08:28:23.859Z,100901.25
2022-10-05T08:32:56.015Z,100884.25
2022-10-05T08:37:35.682Z,100891.34
2022-10-05T08:41:58.300Z,100892.13
2022-10-05T08:46:36.840Z,100901.03
2022-10-05T08:51:17.844Z,100915.56
2022-10-05T08:56:28.855Z,100922.41
2022-10-05T09:00:54.343Z,100919.06
2022-10-05T09:05:25.436Z,100925.22
2022-10-05T09:10:01.413Z,100916.84
2022-10-05T09:14:30.936Z,100911.34
2022-10-05T09:19:09.006Z,100905.09
2022-10-05T09:23:45.307Z,100891.22
2022-10-05T09:28:23.041Z,100903.09
2022-10-05T09:32:54.704Z,100901.13
2022-10-05T09:37:23.082Z,100911.59
2022-10-05T09:41:50.682Z,100910.69
2022-10-05T09:46:25.505Z,100907.31
2022-10-05T09:50:52.152Z,100900.56
2022-10-05T09:55:19.966Z,100906.47
2022-10-05T09:59:47.036Z,100904.87
2022-10-05T10:04:07.207Z,100896.06
2022-10-05T10:08:47.192Z,100902.53
2022-10-05T10:13:28.759Z,100898.78
2022-10-05T10:17:57.169Z,100896.31
2022-10-05T10:22:47.529Z,100895.25
2022-10-05T10:27:16.742Z,100889.06
2022-10-05T10:31:40.697Z,100894.06
2022-10-05T10:36:11.817Z,100886.66
2022-10-05T10:41:09.505Z,100894.16
2022-10-05T10:45:56.871Z,100892.44
2022-10-05T10:50:40.860Z,100886.44
2022-10-05T10:55:21.283Z,100890.97
2022-10-05T11:00:08.406Z,100894.91
2022-10-05T11:04:45.687Z,100898.94
2022-10-05T11:09:11.441Z,100891.69
2022-10-05T11:13:55.806Z,100893.22
2022-10-05T11:18:17.814Z,100882.62
2022-10-05T11:23:05.273Z,100880.22
2022-10-05T11:27:37.544Z,100873.09
2022-10-05T11:32:32.841Z,100867.53
2022-10-05T11:36:57.201Z,100851.31
2022-10-05T11:41:47.146Z,100842.56
2022-10-05T11:46:30.092Z,100843.53
2022-10-05T11:51:17.306Z,100839.75
2022-10-05T11:55:42.084Z,100844.97
2022-10-05T11:59:59.591Z,100834.34
2022-10-05T12:04:39.766Z,100836.63
2022-10-05T12:09:23.905Z,100831.69
2022-10-05T12:14:17.524Z,100820.69
2022-10-05T12:18:34.316Z,100814.75
2022-10-05T12:22:59.258Z,100821.13
2022-10-05T12:27:22.948Z,100822.22
2022-10-05T12:31:41.692Z,100821.97
2022-10-05T12:36:14.590Z,100811.41
2022-10-05T12:40:42.277Z,100801.97
2022-10-05T12:45:23.908Z,100799.16
2022-10-05T12:49:46.079Z,100807.56
2022-10-05T12:54:09.165Z,100802.78
2022-10-05T12:58:41.168Z,100798.66
2022-10-05T13:03:02.060Z,100803.19
2022-10-05T13:07:41.342Z,100801.50
2022-10-05T13:12:04.054Z,100810.34
2022-10-05T13:16:54.823Z,100804.38
2022-10-05T13:21:22.063Z,100794.47
2022-10-05T13:25:44.855Z,100804.91
2022-10-05T13:30:12.918Z,100809.53
2022-10-05T13:35:10.585Z,100801.62
2022-10-05T13:39:42.673Z,100801.59
2022-10-05T13:44:17.613Z,100811.56
2022-10-05T13:48:52.514Z,100813.00
2022-10-05T13:53:36.752Z,100812.03
2022-10-05T13:58:06.239Z,100810.03
2022-10-05T14:02:27.889Z,100803.84
2022-10-05T14:06:44.661Z,100801.25
2022-10-05T14:11:20.427Z,100802.19
2022-10-05T14:15:41.964Z,100808.44
2022-10-05T14:20:03.070Z,100811.03
2022-10-05T14:24:50.768Z,100801.97
2022-10-05T14:29:19.061Z,100799.37
2022-10-05T14:33:37.553Z,100798.16
2022-10-05T14:38:16.642Z,100790.72
2022-10-05T14:42:46.263Z,100794.66
2022-10-05T14:47:20.425Z,100795.66
2022-10-05T14:51:37.764Z,100788.25
2022-10-05T14:56:03.246Z,100803.37
2022-10-05T15:00:19.929Z,100776.50
2022-10-05T15:05:00.082Z,100777.53
2022-10-05T15:09:33.641Z,100783.06
2022-10-05T15:13:50.116Z,100780.50
2022-10-05T15:18:34.934Z,100771.56
2022-10-05T15:23:13.139Z,100771.44
2022-10-05T15:27:54.207Z,100769.53
2022-10-05T15:32:19.527Z,100761.72
2022-10-05T15:36:39.463Z,100758.50
2022-10-05T15:41:03.159Z,100768.66
2022-10-05T15:45:30.166Z,100770.31
2022-10-05T15:50:10.654Z,100776.94
2022-10-05T15:55:01.460Z,100773.50
2022-10-05T15:59:38.770Z,100775.56
2022-10-05T16:04:15.485Z,100770.22
2022-10-05T16:08:54.394Z,100773.91
2022-10-05T16:13:28.126Z,100769.91
2022-10-05T16:18:05.338Z,100773.19
2022-10-05T16:22:49.378Z,100782.53
2022-10-05T16:27:17.301Z,100785.59
2022-10-05T16:31:54.503Z,100798.53
2022-10-05T16:36:23.317Z,100800.09
2022-10-05T16:41:01.923Z,100807.94
2022-10-05T16:45:30.393Z,100810.16
2022-10-05T16:49:48.272Z,100814.88
2022-10-05T16:54:13.443Z,100818.53
2022-10-05T16:58:43.798Z,100824.72
2022-10-05T17:03:10.443Z,100827.78
2022-10-05T17:07:50.706Z,100833.56
2022-10-05T17:12:16.533Z,100838.59
2022-10-05T17:16:43.977Z,100835.19
2022-10-05T17:21:15.564Z,100833.41
2022-10-05T17:25:54.507Z,100835.62
2022-10-05T17:30:29.513Z,100835.38
2022-10-05T17:35:00.780Z,100839.91
2022-10-05T17:39:16.932Z,100838.62
2022-10-05T17:43:34.194Z,100836.13
2022-10-05T17:48:10.089Z,100842.94
2022-10-05T17:52:47.738Z,100851.28
2022-10-05T17:57:04.840Z,100842.94
2022-10-05T18:01:39.757Z,100851.28
2022-10-05T18:06:28.459Z,100846.50
2022-10-05T18:11:09.340Z,100840.13
2022-10-05T18:15:25.340Z,100840.81
2022-10-05T18:20:01.901Z,100848.91
2022-10-05T18:24:27.135Z,100849.25
2022-10-05T18:28:49.565Z,100847.53
2022-10-05T18:33:25.474Z,100838.13
2022-10-05T18:37:48.121Z,100835.62
2022-10-05T18:42:16.166Z,100830.50
2022-10-05T18:46:38.314Z,100832.75
2022-10-05T18:51:05.568Z,100841.38
2022-10-05T18:55:31.709Z,100850.25
2022-10-05T19:00:08.305Z,100845.03
2022-10-05T19:04:35.086Z,100846.31
2022-10-05T19:09:28.767Z,100836.87
2022-10-05T19:14:20.212Z,100846.78
2022-10-05T19:18:40.052Z,100852.59
2022-10-05T19:23:17.462Z,100855.94
2022-10-05T19:28:12.122Z,100855.41
2022-10-05T19:32:44.146Z,100860.31
2022-10-05T19:37:10.779Z,100853.22
2022-10-05T19:41:45.466Z,100856.50
2022-10-05T19:46:21.560Z,100865.59
2022-10-05T19:50:39.950Z,100862.31
2022-10-05T19:55:16.897Z,100867.25
2022-10-05T19:59:32.966Z,100874.22
2022-10-05T20:03:50.220Z,100874.53
2022-10-05T20:08:09.350Z,100874.81
2022-10-05T20:12:47.924Z,100872.62
2022-10-05T20:17:46.221Z,100884.69
2022-10-05T20:22:27.306Z,100882.16
2022-10-05T20:27:32.722Z,100891.81
2022-10-05T20:31:48.942Z,100888.34
2022-10-05T20:36:05.292Z,100891.34
2022-10-05T20:40:21.607Z,100889.41
2022-10-05T20:44:38.695Z,100899.56
2022-10-05T20:48:54.884Z,100897.41
2022-10-05T20:53:12.055Z,100888.09
2022-10-05T20:57:28.340Z,100897.97
2022-10-05T21:01:48.101Z,100896.88
2022-10-05T21:06:04.281Z,100904.81
2022-10-05T21:10:20.435Z,100902.63
2022-10-05T21:14:37.848Z,100894.91
2022-10-05T21:18:53.930Z,100900.88
2022-10-05T21:23:12.361Z,100899.78
2022-10-05T21:27:28.431Z,100898.53
2022-10-05T21:31:44.519Z,100899.47
2022-10-05T21:36:00.793Z,100892.72
2022-10-05T21:40:17.337Z,100897.00
2022-10-05T21:44:33.369Z,100893.56
2022-10-05T21:48:49.872Z,100892.38
2022-10-05T21:53:07.706Z,100890.22
2022-10-05T21:57:23.811Z,100884.81
2022-10-05T22:01:39.989Z,100879.59
2022-10-05T22:05:56.138Z,100881.53
2022-10-05T22:10:12.480Z,100877.59
2022-10-05T22:14:28.543Z,100869.41
2022-10-05T22:18:44.601Z,100870.47
2022-10-05T22:23:00.627Z,100860.09
2022-10-05T22:27:16.904Z,100864.34
2022-10-05T22:31:33.042Z,100873.09
2022-10-05T22:35:49.293Z,100858.56
2022-10-05T22:40:07.226Z,100854.19
2022-10-05T22:44:23.309Z,100859.94
2022-10-05T22:48:40.039Z,100862.12
2022-10-05T22:52:56.111Z,100854.41
2022-10-05T22:57:12.349Z,100863.78
2022-10-05T23:01:28.502Z,100868.13
2022-10-05T23:05:44.557Z,100862.16
2022-10-05T23:10:00.634Z,100862.84
2022-10-05T23:14:17.097Z,100873.00
2022-10-05T23:18:33.999Z,100869.75
2022-10-05T23:22:50.047Z,100862.72
2022-10-05T23:27:06.017Z,100864.09
2022-10-05T23:31:24.438Z,100869.03
2022-10-05T23:35:40.461Z,100865.25
2022-10-05T23:39:56.504Z,100868.56
2022-10-05T23:44:12.596Z,100876.94
2022-10-05T23:48:29.237Z,100873.34
2022-10-05T23:52:45.579Z,100873.88
2022-10-05T23:57:01.574Z,100867.34
